Crookston Municipal Kirkwood Field


Codes: KCKN/CKN
Name: Crookston Municipal Kirkwood Field
City: Crookston
Country: United States
Elevation: 899 ft.
Wikipedia:

Photos at Crookston Municipal Kirkwood Field


   Photos courtesy of SpottingLog. You can add your own sightings and photos by signing up for a free trial today.



No photos found.

Weather at Crookston Municipal Kirkwood Field


Time (UTC)DescriptionTempratureWindCloud coverageVisibilityPressureHumidity
23-May-2024 21:00Light Rain12°C18 mph, NE80%10000m1009hPa67%
24-May-2024 00:00Light Rain13°C20 mph, E88%10000m1008hPa68%
24-May-2024 03:00Heavy Intensity Rain9°C25 mph, NE100%2194m1005hPa93%
24-May-2024 06:00Heavy Intensity Rain10°C20 mph, E100%8899m1004hPa95%
24-May-2024 09:00Moderate Rain11°C18 mph, E100%10000m1001hPa92%
24-May-2024 12:00Light Rain13°C18 mph, SE100%10000m997hPa92%
24-May-2024 15:00Moderate Rain13°C16 mph, S100%6451m995hPa93%
24-May-2024 18:00Moderate Rain10°C7 mph, SE100%10000m995hPa97%
24-May-2024 21:00Light Rain8°C18 mph, SE100%10000m997hPa91%
25-May-2024 00:00Light Rain4°C18 mph, W100%10000m1003hPa92%
25-May-2024 03:00Overcast Clouds5°C18 mph, W98%10000m1005hPa77%
25-May-2024 06:00Overcast Clouds4°C11 mph, SW86%10000m1006hPa87%
25-May-2024 09:00Clear Sky3°C9 mph, SW3%10000m1006hPa92%
25-May-2024 12:00Scattered Clouds6°C7 mph, SW38%10000m1007hPa86%
25-May-2024 15:00Overcast Clouds9°C7 mph, SW98%10000m1007hPa80%
25-May-2024 18:00Overcast Clouds14°C4 mph, SW97%10000m1006hPa67%
25-May-2024 21:00Broken Clouds16°C2 mph, W78%10000m1005hPa62%
26-May-2024 00:00Overcast Clouds16°C4 mph, NE90%10000m1005hPa69%
26-May-2024 03:00Overcast Clouds13°C7 mph, E100%10000m1006hPa76%
26-May-2024 06:00Overcast Clouds12°C9 mph, E100%10000m1006hPa84%
26-May-2024 09:00Overcast Clouds12°C7 mph, E99%10000m1005hPa92%
26-May-2024 12:00Overcast Clouds12°C4 mph, NE100%10000m1006hPa92%
26-May-2024 15:00Overcast Clouds17°C9 mph, NE97%10000m1005hPa76%
26-May-2024 18:00Light Rain18°C11 mph, E90%10000m1005hPa69%
26-May-2024 21:00Light Rain19°C7 mph, NE45%10000m1005hPa64%
27-May-2024 00:00Light Rain18°C11 mph, NE22%10000m1006hPa71%
27-May-2024 03:00Light Rain14°C9 mph, N11%10000m1008hPa84%
27-May-2024 06:00Clear Sky12°C9 mph, NE6%10000m1009hPa83%
27-May-2024 09:00Clear Sky9°C9 mph, N10%10000m1011hPa89%
27-May-2024 12:00Few Clouds10°C7 mph, N11%10000m1013hPa87%
27-May-2024 15:00Scattered Clouds14°C9 mph, N36%10000m1013hPa69%
27-May-2024 18:00Scattered Clouds17°C7 mph, NW43%10000m1013hPa55%
27-May-2024 21:00Broken Clouds18°C7 mph, SW55%10000m1010hPa52%
28-May-2024 00:00Light Rain13°C16 mph, NW78%10000m1010hPa91%
28-May-2024 03:00Light Rain10°C9 mph, N100%10000m1012hPa94%
28-May-2024 06:00Light Rain9°C11 mph, NW100%10000m1013hPa87%
28-May-2024 09:00Scattered Clouds7°C13 mph, NW44%10000m1014hPa93%
28-May-2024 12:00Scattered Clouds6°C13 mph, NW48%10000m1016hPa91%
28-May-2024 15:00Light Rain8°C18 mph, NW91%10000m1016hPa80%
28-May-2024 18:00Light Rain8°C16 mph, NW96%10000m1017hPa84%